Punta Gorda, FL

6:48 PM EDT on August 30, 2016 (GMT -0400)
Charlotte County | | Change Station

Elev 26 ft 26.92 °N, 81.99 °W | Updated 32 minutes ago

Light Rain
Light Rain Mist
77 °F
Feels Like 77 °F
N
0
Wind Variable Wind from North

Today
High -- | Low -- °F
--% Chance of Precip.
Yesterday
High -- | Low -- °F
Precip. -- in
Pressure 29.89 in
Visibility 4.0 miles
Clouds Scattered Clouds 1500 ft
Mostly Cloudy 2100 ft
Overcast 3500 ft
Dew Point 75 °F
Humidity 94%
Rainfall 0.44 in
Snow Depth Not available.
7:06 AM 7:49 PM
Waning Crescent, 2% visible
SPECI KPGD 302216Z 00000KT 4SM -RA BR SCT015 BKN021 OVC035 25/24 A2989 RMK AO2 RAB2159 P0002 T02500239
Pressure 29.89 in
Visibility 4.0 miles
Clouds Scattered Clouds 1500 ft
Mostly Cloudy 2100 ft
Overcast 3500 ft
Dew Point 75 °F
Humidity 94%
Rainfall 0.44 in
Snow Depth Not available.
7:06 AM 7:49 PM
Waning Crescent, 2% visible
SPECI KPGD 302216Z 00000KT 4SM -RA BR SCT015 BKN021 OVC035 25/24 A2989 RMK AO2 RAB2159 P0002 T02500239

10-Day Weather Forecast

Almanac

Astronomy

Aug. 30, 2016 Rise Set
Actual Time
Civil Twilight
Nautical Twilight
Astronomical Twilight
Moon
Length of Visible Light
Length of Day
Tomorrow will be .
, % of the Moon is Illuminated

Today's Extremes

State Highs State Lows

Community

WunderPhotos

Upload Photos

1,935,917 photos uploaded!

WunderBlog® & News

Nearby

Air Quality

  Air Quality AQ Index Pollutant
Not available.

Snow Depth

Station Depth Elevation

Earthquake Activity

City Distance Mag. Time & Date
Minimum magnitude displayed is 2.5.

Coastal Water Temperatures

Place Temperature

Stations

Nearby Weather Stations

Station Location Temp. Windchill Dew Point Humidity Wind Precip. Elev Updated Type
                   

Watches & Warnings

There are currently no watches in effect.